createdAt,value
2022-09-10T00:01:30.073Z,99.90
2022-09-10T00:03:57.066Z,99.90
2022-09-10T00:06:26.237Z,99.90
2022-09-10T00:08:56.510Z,99.90
2022-09-10T00:11:25.402Z,99.90
2022-09-10T00:13:52.786Z,99.90
2022-09-10T00:16:20.364Z,99.90
2022-09-10T00:18:48.560Z,99.90
2022-09-10T00:21:20.323Z,99.90
2022-09-10T00:23:48.253Z,99.90
2022-09-10T00:26:23.419Z,99.90
2022-09-10T00:28:52.312Z,99.90
2022-09-10T00:31:21.912Z,99.90
2022-09-10T00:33:54.977Z,99.90
2022-09-10T00:36:27.903Z,99.90
2022-09-10T00:38:59.034Z,99.90
2022-09-10T00:41:26.939Z,99.90
2022-09-10T00:44:04.120Z,99.90
2022-09-10T00:46:50.214Z,99.90
2022-09-10T00:49:21.394Z,99.90
2022-09-10T00:51:52.936Z,99.90
2022-09-10T00:54:24.005Z,99.90
2022-09-10T00:56:53.631Z,99.90
2022-09-10T00:59:23.342Z,99.90
2022-09-10T01:01:50.574Z,99.90
2022-09-10T01:04:17.602Z,99.90
2022-09-10T01:06:46.232Z,99.90
2022-09-10T01:09:14.222Z,99.90
2022-09-10T01:12:06.076Z,99.90
2022-09-10T01:14:58.072Z,99.90
2022-09-10T01:17:47.873Z,99.90
2022-09-10T01:20:37.239Z,99.90
2022-09-10T01:23:22.764Z,99.90
2022-09-10T01:26:16.530Z,99.90
2022-09-10T01:29:02.118Z,99.90
2022-09-10T01:31:51.240Z,99.90
2022-09-10T01:34:37.363Z,99.90
2022-09-10T01:37:10.270Z,99.90
2022-09-10T01:39:38.667Z,99.90
2022-09-10T01:42:07.342Z,99.90
2022-09-10T01:44:56.932Z,99.90
2022-09-10T01:47:53.633Z,99.90
2022-09-10T01:50:26.606Z,99.90
2022-09-10T01:53:28.928Z,99.90
2022-09-10T01:56:37.316Z,99.90
2022-09-10T01:59:51.341Z,99.90
2022-09-10T02:02:37.127Z,99.90
2022-09-10T02:05:06.852Z,99.90
2022-09-10T02:07:36.299Z,99.90
2022-09-10T02:10:06.940Z,99.90
2022-09-10T02:12:40.103Z,99.90
2022-09-10T02:15:28.903Z,99.90
2022-09-10T02:18:11.233Z,99.90
2022-09-10T02:20:39.283Z,99.90
2022-09-10T02:23:07.917Z,99.90
2022-09-10T02:25:37.379Z,99.90
2022-09-10T02:28:05.959Z,99.90
2022-09-10T02:30:32.860Z,99.90
2022-09-10T02:33:00.340Z,99.90
2022-09-10T02:35:27.374Z,99.90
2022-09-10T02:37:54.863Z,99.90
2022-09-10T02:40:21.765Z,99.90
2022-09-10T02:42:49.740Z,99.90
2022-09-10T02:45:26.150Z,99.90
2022-09-10T02:47:53.640Z,99.90
2022-09-10T02:50:23.027Z,99.90
2022-09-10T02:52:52.065Z,99.90
2022-09-10T02:55:19.131Z,99.90
2022-09-10T02:57:47.052Z,99.90
2022-09-10T03:00:14.351Z,99.90
2022-09-10T03:02:41.503Z,99.90
2022-09-10T03:05:08.891Z,99.90
2022-09-10T03:07:35.957Z,99.90
2022-09-10T03:10:03.451Z,99.90
2022-09-10T03:12:30.351Z,99.90
2022-09-10T03:14:58.412Z,99.90
2022-09-10T03:17:26.190Z,99.90
2022-09-10T03:19:55.373Z,99.90
2022-09-10T03:22:22.374Z,99.90
2022-09-10T03:24:49.558Z,99.90
2022-09-10T03:27:17.507Z,99.90
2022-09-10T03:29:45.411Z,99.90
2022-09-10T03:32:14.390Z,99.90
2022-09-10T03:34:41.252Z,99.90
2022-09-10T03:37:08.224Z,99.90
2022-09-10T03:39:36.266Z,99.90
2022-09-10T03:42:05.354Z,99.90
2022-09-10T03:44:33.974Z,99.90
2022-09-10T03:47:01.796Z,99.90
2022-09-10T03:49:29.663Z,99.90
2022-09-10T03:51:56.986Z,99.90
2022-09-10T03:54:24.759Z,99.90
2022-09-10T03:56:51.785Z,99.90
2022-09-10T03:59:18.719Z,99.90
2022-09-10T04:01:46.769Z,99.90
2022-09-10T04:04:15.007Z,99.90
2022-09-10T04:06:43.092Z,99.90
2022-09-10T04:09:14.934Z,99.90
2022-09-10T04:11:42.675Z,99.90
2022-09-10T04:14:10.474Z,99.90
2022-09-10T04:16:40.083Z,99.90
2022-09-10T04:19:09.068Z,99.90
2022-09-10T04:21:36.641Z,99.90
2022-09-10T04:24:03.851Z,99.90
2022-09-10T04:26:30.992Z,99.90
2022-09-10T04:28:57.974Z,99.90
2022-09-10T04:31:24.964Z,99.90
2022-09-10T04:33:56.371Z,99.90
2022-09-10T04:36:26.221Z,99.90
2022-09-10T04:38:53.557Z,99.90
2022-09-10T04:41:20.600Z,99.90
2022-09-10T04:43:48.176Z,99.90
2022-09-10T04:46:15.899Z,99.90
2022-09-10T04:48:43.480Z,99.90
2022-09-10T04:51:16.500Z,99.90
2022-09-10T04:53:46.378Z,99.90
2022-09-10T04:56:13.699Z,99.90
2022-09-10T04:58:41.878Z,99.90
2022-09-10T05:01:09.520Z,99.90
2022-09-10T05:03:37.578Z,99.90
2022-09-10T05:06:06.604Z,99.90
2022-09-10T05:08:33.824Z,99.90
2022-09-10T05:11:03.767Z,99.90
2022-09-10T05:13:31.691Z,99.90
2022-09-10T05:16:00.283Z,99.90
2022-09-10T05:18:27.451Z,99.90
2022-09-10T05:20:54.763Z,99.90
2022-09-10T05:23:21.896Z,99.90
2022-09-10T05:25:49.765Z,99.90
2022-09-10T05:28:17.894Z,99.90
2022-09-10T05:30:49.544Z,99.90
2022-09-10T05:33:21.465Z,99.90
2022-09-10T05:35:51.941Z,99.90
2022-09-10T05:38:20.460Z,99.90
2022-09-10T05:40:48.732Z,99.90
2022-09-10T05:43:15.853Z,99.90
2022-09-10T05:45:44.755Z,99.90
2022-09-10T05:48:11.957Z,99.90
2022-09-10T05:50:40.656Z,99.90
2022-09-10T05:53:09.765Z,99.90
2022-09-10T05:55:38.024Z,99.90
2022-09-10T05:58:06.178Z,99.90
2022-09-10T06:00:36.433Z,99.90
2022-09-10T06:03:04.811Z,99.90
2022-09-10T06:05:50.704Z,99.90
2022-09-10T06:08:24.173Z,99.90
2022-09-10T06:11:00.347Z,99.90
2022-09-10T06:13:30.348Z,99.90
2022-09-10T06:15:58.566Z,99.90
2022-09-10T06:18:28.134Z,99.90
2022-09-10T06:21:11.932Z,99.90
2022-09-10T06:23:40.306Z,99.90
2022-09-10T06:26:12.874Z,99.90
2022-09-10T06:28:40.843Z,99.90
2022-09-10T06:31:09.082Z,99.90
2022-09-10T06:33:37.763Z,99.90
2022-09-10T06:36:06.165Z,99.90
2022-09-10T06:38:33.938Z,99.90
2022-09-10T06:41:04.746Z,99.90
2022-09-10T06:43:40.134Z,99.90
2022-09-10T06:46:32.321Z,99.90
2022-09-10T06:49:13.246Z,99.90
2022-09-10T06:51:42.890Z,99.90
2022-09-10T06:54:10.775Z,99.90
2022-09-10T06:56:38.259Z,99.90
2022-09-10T06:59:05.445Z,99.90
2022-09-10T07:01:38.246Z,99.90
2022-09-10T07:04:06.847Z,99.90
2022-09-10T07:06:36.169Z,99.90
2022-09-10T07:09:11.342Z,99.90
2022-09-10T07:12:09.454Z,99.90
2022-09-10T07:14:38.992Z,99.90
2022-09-10T07:17:08.354Z,99.90
2022-09-10T07:19:37.759Z,99.90
2022-09-10T07:22:11.710Z,99.90
2022-09-10T07:24:39.215Z,99.90
2022-09-10T07:27:11.094Z,99.90
2022-09-10T07:29:40.460Z,99.90
2022-09-10T07:32:13.652Z,99.90
2022-09-10T07:34:41.309Z,99.90
2022-09-10T07:37:08.266Z,99.90
2022-09-10T07:39:35.474Z,99.90
2022-09-10T07:42:03.095Z,99.20
2022-09-10T07:44:34.929Z,99.90
2022-09-10T07:47:03.563Z,99.90
2022-09-10T07:49:32.728Z,99.90
2022-09-10T07:52:00.432Z,99.90
2022-09-10T07:54:32.887Z,97.00
2022-09-10T07:57:00.666Z,95.70
2022-09-10T07:59:28.183Z,94.10
2022-09-10T08:02:01.434Z,91.90
2022-09-10T08:04:36.777Z,89.20
2022-09-10T08:07:07.842Z,88.10
2022-09-10T08:09:37.734Z,85.30
2022-09-10T08:12:07.812Z,86.70
2022-09-10T08:14:38.349Z,85.40
2022-09-10T08:17:06.094Z,85.10
2022-09-10T08:19:38.284Z,83.70
2022-09-10T08:22:09.184Z,82.80
2022-09-10T08:24:43.215Z,83.70
2022-09-10T08:27:11.870Z,83.30
2022-09-10T08:29:39.882Z,82.80
2022-09-10T08:32:09.756Z,82.10
2022-09-10T08:34:36.652Z,81.50
2022-09-10T08:37:08.016Z,81.90
2022-09-10T08:39:36.882Z,82.90
2022-09-10T08:42:32.321Z,83.70
2022-09-10T08:45:06.713Z,83.70
2022-09-10T08:47:53.387Z,83.70
2022-09-10T08:50:41.731Z,83.20
2022-09-10T08:53:26.059Z,82.40
2022-09-10T08:55:58.095Z,84.70
2022-09-10T08:58:44.949Z,86.40
2022-09-10T09:01:21.013Z,88.80
2022-09-10T09:03:48.709Z,90.60
2022-09-10T09:06:26.961Z,91.30
2022-09-10T09:08:56.160Z,92.60
2022-09-10T09:11:56.481Z,97.60
2022-09-10T09:14:28.056Z,98.90
2022-09-10T09:16:59.754Z,92.70
2022-09-10T09:19:45.137Z,90.30
2022-09-10T09:22:18.628Z,87.20
2022-09-10T09:24:56.822Z,81.50
2022-09-10T09:27:27.596Z,72.70
2022-09-10T09:30:02.434Z,70.50
2022-09-10T09:32:35.861Z,70.90
2022-09-10T09:35:16.879Z,74.20
2022-09-10T09:37:50.178Z,72.40
2022-09-10T09:40:31.557Z,72.20
2022-09-10T09:43:05.166Z,69.20
2022-09-10T09:45:42.487Z,70.40
2022-09-10T09:48:16.168Z,67.00
2022-09-10T09:50:48.199Z,67.20
2022-09-10T09:53:27.045Z,68.00
2022-09-10T09:55:54.134Z,64.10
2022-09-10T09:58:26.962Z,67.90
2022-09-10T10:01:16.033Z,60.30
2022-09-10T10:03:54.562Z,59.70
2022-09-10T10:06:45.412Z,59.80
2022-09-10T10:09:20.933Z,57.80
2022-09-10T10:11:51.895Z,57.40
2022-09-10T10:14:25.395Z,53.90
2022-09-10T10:16:57.365Z,51.20
2022-09-10T10:19:41.133Z,51.00
2022-09-10T10:22:14.455Z,53.20
2022-09-10T10:24:42.828Z,54.40
2022-09-10T10:27:36.565Z,57.30
2022-09-10T10:30:03.343Z,60.80
2022-09-10T10:32:54.115Z,63.70
2022-09-10T10:35:33.164Z,66.60
2022-09-10T10:38:17.394Z,68.80
2022-09-10T10:41:26.810Z,69.80
2022-09-10T10:44:06.671Z,71.40
2022-09-10T10:46:53.387Z,72.00
2022-09-10T10:49:48.244Z,73.00
2022-09-10T10:52:27.114Z,73.60
2022-09-10T10:54:57.043Z,74.30
2022-09-10T10:57:33.915Z,76.50
2022-09-10T11:00:13.052Z,73.10
2022-09-10T11:03:06.814Z,69.80
2022-09-10T11:05:41.532Z,61.40
2022-09-10T11:08:17.943Z,57.20
2022-09-10T11:11:06.762Z,56.00
2022-09-10T11:13:43.969Z,55.30
2022-09-10T11:16:22.065Z,55.30
2022-09-10T11:19:01.879Z,57.70
2022-09-10T11:21:50.691Z,60.20
2022-09-10T11:24:27.126Z,61.90
2022-09-10T11:27:14.862Z,62.60
2022-09-10T11:29:50.134Z,57.20
2022-09-10T11:32:27.535Z,55.10
2022-09-10T11:35:17.076Z,54.00
2022-09-10T11:37:51.903Z,50.50
2022-09-10T11:40:26.451Z,50.80
2022-09-10T11:43:06.171Z,49.50
2022-09-10T11:45:54.834Z,47.40
2022-09-10T11:48:49.957Z,46.60
2022-09-10T11:51:26.724Z,45.30
2022-09-10T11:53:57.932Z,47.20
2022-09-10T11:56:50.144Z,48.30
2022-09-10T11:59:48.023Z,47.00
2022-09-10T12:02:38.666Z,47.90
2022-09-10T12:05:19.460Z,49.60
2022-09-10T12:08:11.503Z,50.50
2022-09-10T12:10:59.915Z,49.90
2022-09-10T12:13:27.233Z,48.60
2022-09-10T12:15:59.915Z,46.80
2022-09-10T12:18:42.835Z,46.10
2022-09-10T12:21:28.152Z,45.00
2022-09-10T12:23:56.796Z,46.10
2022-09-10T12:26:27.313Z,44.90
2022-09-10T12:28:59.050Z,45.30
2022-09-10T12:31:27.806Z,45.60
2022-09-10T12:33:55.342Z,46.20
2022-09-10T12:36:28.682Z,46.50
2022-09-10T12:39:16.629Z,45.30
2022-09-10T12:41:43.547Z,45.30
2022-09-10T12:44:35.357Z,44.90
2022-09-10T12:47:17.875Z,44.50
2022-09-10T12:49:57.495Z,44.30
2022-09-10T12:52:39.161Z,45.10
2022-09-10T12:55:39.652Z,44.50
2022-09-10T12:58:37.311Z,43.40
2022-09-10T13:01:38.229Z,43.40
2022-09-10T13:04:06.131Z,44.90
2022-09-10T13:06:40.057Z,45.60
2022-09-10T13:09:29.558Z,44.40
2022-09-10T13:12:00.267Z,43.60
2022-09-10T13:14:36.927Z,44.00
2022-09-10T13:17:05.893Z,43.00
2022-09-10T13:19:33.049Z,41.90
2022-09-10T13:22:00.144Z,41.70
2022-09-10T13:24:34.060Z,42.50
2022-09-10T13:27:21.547Z,42.90
2022-09-10T13:30:11.698Z,43.40
2022-09-10T13:32:50.374Z,41.10
2022-09-10T13:35:58.650Z,42.30
2022-09-10T13:38:43.659Z,42.70
2022-09-10T13:41:40.620Z,41.20
2022-09-10T13:44:32.789Z,41.20
2022-09-10T13:47:10.228Z,42.30
2022-09-10T13:50:14.387Z,42.70
2022-09-10T13:52:58.023Z,42.30
2022-09-10T13:55:39.802Z,41.10
2022-09-10T13:58:14.955Z,43.20
2022-09-10T14:00:57.144Z,42.20
2022-09-10T14:03:36.391Z,43.10
2022-09-10T14:06:05.129Z,43.70
2022-09-10T14:08:43.922Z,43.20
2022-09-10T14:11:14.070Z,42.50
2022-09-10T14:14:17.540Z,42.20
2022-09-10T14:16:58.852Z,42.60
2022-09-10T14:19:59.485Z,42.60
2022-09-10T14:22:28.899Z,41.00
2022-09-10T14:25:01.692Z,42.00
2022-09-10T14:27:37.392Z,41.80
2022-09-10T14:30:32.109Z,41.30
2022-09-10T14:33:18.653Z,42.10
2022-09-10T14:35:49.520Z,41.90
2022-09-10T14:38:36.435Z,41.60
2022-09-10T14:41:17.383Z,42.60
2022-09-10T14:43:48.457Z,42.40
2022-09-10T14:46:57.795Z,41.60
2022-09-10T14:49:35.861Z,40.20
2022-09-10T14:52:11.091Z,41.00
2022-09-10T14:54:38.123Z,42.00
2022-09-10T14:57:15.343Z,41.90
2022-09-10T14:59:44.863Z,42.40
2022-09-10T15:02:43.513Z,42.80
2022-09-10T15:05:16.755Z,43.60
2022-09-10T15:07:49.044Z,43.80
2022-09-10T15:10:22.305Z,44.30
2022-09-10T15:12:54.250Z,43.40
2022-09-10T15:15:21.113Z,43.20
2022-09-10T15:17:48.166Z,42.30
2022-09-10T15:20:17.075Z,42.10
2022-09-10T15:22:44.855Z,41.60
2022-09-10T15:25:39.061Z,41.40
2022-09-10T15:28:15.103Z,41.50
2022-09-10T15:30:42.281Z,42.20
2022-09-10T15:33:14.905Z,43.30
2022-09-10T15:35:42.279Z,43.10
2022-09-10T15:38:13.405Z,43.50
2022-09-10T15:40:40.617Z,44.10
2022-09-10T15:43:11.217Z,44.30
2022-09-10T15:45:40.193Z,43.90
2022-09-10T15:48:10.170Z,43.10
2022-09-10T15:50:38.791Z,43.30
2022-09-10T15:53:11.905Z,43.80
2022-09-10T15:55:39.972Z,44.00
2022-09-10T15:58:08.463Z,44.70
2022-09-10T16:00:38.384Z,45.30
2022-09-10T16:03:05.405Z,45.60
2022-09-10T16:05:35.645Z,46.30
2022-09-10T16:08:02.821Z,46.10
2022-09-10T16:10:30.923Z,45.70
2022-09-10T16:13:02.686Z,47.60
2022-09-10T16:15:35.518Z,50.10
2022-09-10T16:18:03.023Z,51.60
2022-09-10T16:20:35.660Z,52.00
2022-09-10T16:23:08.983Z,49.70
2022-09-10T16:25:37.179Z,48.50
2022-09-10T16:28:04.561Z,48.80
2022-09-10T16:30:35.188Z,48.10
2022-09-10T16:33:02.605Z,48.30
2022-09-10T16:35:29.762Z,48.90
2022-09-10T16:37:57.254Z,49.20
2022-09-10T16:40:27.221Z,49.10
2022-09-10T16:42:56.246Z,48.80
2022-09-10T16:45:25.815Z,50.40
2022-09-10T16:47:55.401Z,52.30
2022-09-10T16:50:26.918Z,54.30
2022-09-10T16:52:58.790Z,56.50
2022-09-10T16:55:30.126Z,59.30
2022-09-10T17:01:43.816Z,63.20
2022-09-10T17:09:00.135Z,66.90
2022-09-10T17:11:32.996Z,69.50
2022-09-10T17:14:02.863Z,70.30
2022-09-10T17:16:51.627Z,72.10
2022-09-10T17:19:24.207Z,73.10
2022-09-10T17:21:55.952Z,73.60
2022-09-10T17:24:34.906Z,74.00
2022-09-10T17:27:57.775Z,74.20
2022-09-10T17:31:49.541Z,74.50
2022-09-10T17:34:24.334Z,74.20
2022-09-10T17:37:25.653Z,73.90
2022-09-10T17:40:15.109Z,73.90
2022-09-10T17:42:45.816Z,73.90
2022-09-10T17:45:19.857Z,74.10
2022-09-10T17:47:48.748Z,74.30
2022-09-10T17:50:15.957Z,74.20
2022-09-10T17:52:46.225Z,74.00
2022-09-10T17:55:13.291Z,73.70
2022-09-10T17:57:40.788Z,74.00
2022-09-10T18:00:11.582Z,74.80
2022-09-10T18:02:38.904Z,75.50
2022-09-10T18:05:11.071Z,76.80
2022-09-10T18:07:47.443Z,79.40
2022-09-10T18:10:14.803Z,81.70
2022-09-10T18:12:44.009Z,81.20
2022-09-10T18:15:13.541Z,82.00
2022-09-10T18:17:40.527Z,82.30
2022-09-10T18:20:11.128Z,82.20
2022-09-10T18:22:38.529Z,82.70
2022-09-10T18:25:06.774Z,82.70
2022-09-10T18:27:34.421Z,83.00
2022-09-10T18:30:02.280Z,83.60
2022-09-10T18:32:29.331Z,84.50
2022-09-10T18:34:57.608Z,84.90
2022-09-10T18:37:25.946Z,84.80
2022-09-10T18:39:54.644Z,85.30
2022-09-10T18:42:29.653Z,85.90
2022-09-10T18:44:56.955Z,86.00
2022-09-10T18:47:43.482Z,86.10
2022-09-10T18:50:13.295Z,86.10
2022-09-10T18:52:41.851Z,86.70
2022-09-10T18:55:12.118Z,86.90
2022-09-10T18:57:39.363Z,87.00
2022-09-10T19:00:07.866Z,87.30
2022-09-10T19:02:35.588Z,87.80
2022-09-10T19:05:12.041Z,88.50
2022-09-10T19:07:39.817Z,88.70
2022-09-10T19:10:07.989Z,88.70
2022-09-10T19:12:35.496Z,89.40
2022-09-10T19:15:02.521Z,89.40
2022-09-10T19:17:32.248Z,89.80
2022-09-10T19:19:59.336Z,89.70
2022-09-10T19:22:26.702Z,89.70
2022-09-10T19:24:59.137Z,90.10
2022-09-10T19:27:26.520Z,90.20
2022-09-10T19:29:54.169Z,90.40
2022-09-10T19:32:21.999Z,90.60
2022-09-10T19:34:55.716Z,90.80
2022-09-10T19:37:26.497Z,91.00
2022-09-10T19:39:57.446Z,91.20
2022-09-10T19:42:24.983Z,91.30
2022-09-10T19:44:52.257Z,91.20
2022-09-10T19:47:19.769Z,91.40
2022-09-10T19:49:47.732Z,91.40
2022-09-10T19:52:14.978Z,91.40
2022-09-10T19:54:45.194Z,91.60
2022-09-10T19:57:16.106Z,91.60
2022-09-10T19:59:43.062Z,91.70
2022-09-10T20:02:10.364Z,91.80
2022-09-10T20:04:37.487Z,92.00
2022-09-10T20:07:05.038Z,92.10
2022-09-10T20:09:39.227Z,92.20
2022-09-10T20:12:07.449Z,92.20
2022-09-10T20:14:34.604Z,92.50
2022-09-10T20:17:03.523Z,92.50
2022-09-10T20:19:30.984Z,92.50
2022-09-10T20:21:58.015Z,92.90
2022-09-10T20:24:26.860Z,93.20
2022-09-10T20:26:54.621Z,93.50
2022-09-10T20:29:24.634Z,93.80
2022-09-10T20:31:53.093Z,93.90
2022-09-10T20:34:22.886Z,93.90
2022-09-10T20:36:53.170Z,94.00
2022-09-10T20:39:25.492Z,94.30
2022-09-10T20:41:53.071Z,94.50
2022-09-10T20:44:20.843Z,94.70
2022-09-10T20:46:47.846Z,95.00
2022-09-10T20:49:16.218Z,95.00
2022-09-10T20:51:44.097Z,95.20
2022-09-10T20:54:14.042Z,95.40
2022-09-10T20:56:41.203Z,95.50
2022-09-10T20:59:08.469Z,95.50
2022-09-10T21:01:35.430Z,95.50
2022-09-10T21:04:04.166Z,95.70
2022-09-10T21:06:33.485Z,95.80
2022-09-10T21:09:02.148Z,95.80
2022-09-10T21:11:31.313Z,95.80
2022-09-10T21:14:00.629Z,95.80
2022-09-10T21:16:39.572Z,95.90
2022-09-10T21:19:14.448Z,96.00
2022-09-10T21:21:42.599Z,96.10
2022-09-10T21:24:14.927Z,96.30
2022-09-10T21:26:45.939Z,96.30
2022-09-10T21:29:15.580Z,96.50
2022-09-10T21:31:43.443Z,96.80
2022-09-10T21:34:10.641Z,97.20
2022-09-10T21:36:39.287Z,97.10
2022-09-10T21:39:08.171Z,96.90
2022-09-10T21:41:42.746Z,97.40
2022-09-10T21:44:20.014Z,97.30
2022-09-10T21:46:48.392Z,97.10
2022-09-10T21:49:19.051Z,97.20
2022-09-10T21:51:46.049Z,97.40
2022-09-10T21:54:16.003Z,97.30
2022-09-10T21:56:42.918Z,97.40
2022-09-10T21:59:10.046Z,97.40
2022-09-10T22:01:36.990Z,97.80
2022-09-10T22:04:04.094Z,97.70
2022-09-10T22:06:35.430Z,97.40
2022-09-10T22:09:08.598Z,97.50
2022-09-10T22:11:38.930Z,97.40
2022-09-10T22:14:08.279Z,97.70
2022-09-10T22:16:35.642Z,97.80
2022-09-10T22:19:06.113Z,98.10
2022-09-10T22:21:33.925Z,98.20
2022-09-10T22:24:00.881Z,98.30
2022-09-10T22:26:28.607Z,98.60
2022-09-10T22:28:59.267Z,98.30
2022-09-10T22:31:28.901Z,98.20
2022-09-10T22:34:00.116Z,98.40
2022-09-10T22:36:31.556Z,98.20
2022-09-10T22:39:00.206Z,98.50
2022-09-10T22:41:28.449Z,98.60
2022-09-10T22:43:55.607Z,98.80
2022-09-10T22:46:24.083Z,98.80
2022-09-10T22:48:51.107Z,98.70
2022-09-10T22:51:20.558Z,99.10
2022-09-10T22:53:48.208Z,99.30
2022-09-10T22:56:17.669Z,99.60
2022-09-10T22:58:45.870Z,99.90
2022-09-10T23:01:15.370Z,99.90
2022-09-10T23:03:43.269Z,99.90
2022-09-10T23:06:12.854Z,99.80
2022-09-10T23:08:39.848Z,99.70
2022-09-10T23:11:21.196Z,99.80
2022-09-10T23:13:54.655Z,99.90
2022-09-10T23:16:32.353Z,99.90
2022-09-10T23:19:01.150Z,99.90
2022-09-10T23:21:29.587Z,99.90
2022-09-10T23:23:59.070Z,99.90
2022-09-10T23:26:27.026Z,99.90
2022-09-10T23:28:54.777Z,99.90
2022-09-10T23:31:26.561Z,99.90
2022-09-10T23:33:59.116Z,99.60
2022-09-10T23:36:31.417Z,99.60
2022-09-10T23:38:59.170Z,99.30
2022-09-10T23:41:26.536Z,99.30
2022-09-10T23:43:54.091Z,99.50
2022-09-10T23:46:21.318Z,99.70
2022-09-10T23:48:49.426Z,99.80
2022-09-10T23:51:19.201Z,99.90
2022-09-10T23:53:47.212Z,99.90
2022-09-10T23:56:18.550Z,99.80
2022-09-10T23:58:46.026Z,99.90
